createdAt,value
2023-05-24T00:02:16.495Z,99.22
2023-05-24T00:04:45.349Z,99.29
2023-05-24T00:07:12.656Z,99.54
2023-05-24T00:09:39.480Z,99.50
2023-05-24T00:12:06.531Z,99.59
2023-05-24T00:14:33.290Z,100.00
2023-05-24T00:17:00.118Z,100.00
2023-05-24T00:19:27.586Z,100.00
2023-05-24T00:21:54.436Z,100.00
2023-05-24T00:24:21.282Z,100.00
2023-05-24T00:26:48.671Z,100.00
2023-05-24T00:29:15.413Z,100.00
2023-05-24T00:31:42.456Z,100.00
2023-05-24T00:34:09.261Z,100.00
2023-05-24T00:36:38.391Z,100.00
2023-05-24T00:39:05.952Z,100.00
2023-05-24T00:41:33.399Z,100.00
2023-05-24T00:44:00.224Z,100.00
2023-05-24T00:46:27.211Z,100.00
2023-05-24T00:48:54.620Z,100.00
2023-05-24T00:51:21.998Z,100.00
2023-05-24T00:53:49.995Z,100.00
2023-05-24T00:56:18.303Z,100.00
2023-05-24T00:58:46.128Z,100.00
2023-05-24T01:01:14.388Z,100.00
2023-05-24T01:03:41.830Z,100.00
2023-05-24T01:06:09.361Z,100.00
2023-05-24T01:08:43.782Z,100.00
2023-05-24T01:11:36.100Z,100.00
2023-05-24T01:14:26.680Z,100.00
2023-05-24T01:17:15.101Z,100.00
2023-05-24T01:19:56.750Z,100.00
2023-05-24T01:22:46.479Z,100.00
2023-05-24T01:25:35.623Z,100.00
2023-05-24T01:28:04.362Z,100.00
2023-05-24T01:30:31.251Z,100.00
2023-05-24T01:32:58.248Z,100.00
2023-05-24T01:35:25.158Z,100.00
2023-05-24T01:37:51.945Z,100.00
2023-05-24T01:40:18.942Z,100.00
2023-05-24T01:43:03.391Z,100.00
2023-05-24T01:45:54.591Z,100.00
2023-05-24T01:48:43.100Z,100.00
2023-05-24T01:51:12.106Z,100.00
2023-05-24T01:53:50.045Z,100.00
2023-05-24T01:56:17.498Z,100.00
2023-05-24T01:58:46.814Z,100.00
2023-05-24T02:01:14.450Z,100.00
2023-05-24T02:03:41.506Z,100.00
2023-05-24T02:06:08.427Z,100.00
2023-05-24T02:08:35.431Z,100.00
2023-05-24T02:11:02.713Z,100.00
2023-05-24T02:13:29.500Z,99.93
2023-05-24T02:15:56.384Z,98.51
2023-05-24T02:18:23.174Z,98.01
2023-05-24T02:20:49.971Z,98.40
2023-05-24T02:23:16.863Z,99.52
2023-05-24T02:25:43.990Z,99.68
2023-05-24T02:28:10.842Z,100.00
2023-05-24T02:30:38.537Z,100.00
2023-05-24T02:33:05.684Z,100.00
2023-05-24T02:35:33.620Z,100.00
2023-05-24T02:38:01.645Z,100.00
2023-05-24T02:40:28.436Z,100.00
2023-05-24T02:42:55.421Z,100.00
2023-05-24T02:45:22.174Z,100.00
2023-05-24T02:47:48.927Z,100.00
2023-05-24T02:50:15.916Z,100.00
2023-05-24T02:52:42.857Z,99.54
2023-05-24T02:55:09.975Z,98.88
2023-05-24T02:57:37.944Z,99.10
2023-05-24T03:00:08.361Z,98.72
2023-05-24T03:02:38.511Z,98.46
2023-05-24T03:05:06.072Z,97.44
2023-05-24T03:07:32.963Z,96.88
2023-05-24T03:09:59.845Z,95.77
2023-05-24T03:12:26.673Z,95.30
2023-05-24T03:14:53.462Z,95.46
2023-05-24T03:17:20.230Z,95.85
2023-05-24T03:19:47.051Z,96.44
2023-05-24T03:22:13.886Z,95.71
2023-05-24T03:24:40.672Z,95.43
2023-05-24T03:27:08.794Z,96.20
2023-05-24T03:29:35.569Z,95.99
2023-05-24T03:32:02.432Z,96.34
2023-05-24T03:34:30.281Z,96.46
2023-05-24T03:36:57.150Z,95.92
2023-05-24T03:39:23.955Z,95.85
2023-05-24T03:41:50.796Z,95.93
2023-05-24T03:44:17.600Z,95.64
2023-05-24T03:46:44.371Z,95.86
2023-05-24T03:49:11.138Z,96.24
2023-05-24T03:51:37.873Z,96.72
2023-05-24T03:54:04.720Z,96.38
2023-05-24T03:56:31.583Z,96.17
2023-05-24T03:59:00.820Z,95.65
2023-05-24T04:01:33.987Z,94.85
2023-05-24T04:04:02.272Z,94.64
2023-05-24T04:06:30.382Z,93.23
2023-05-24T04:08:58.860Z,92.72
2023-05-24T04:11:29.052Z,92.51
2023-05-24T04:13:57.671Z,93.17
2023-05-24T04:16:26.243Z,92.16
2023-05-24T04:18:55.133Z,92.22
2023-05-24T04:21:22.731Z,92.38
2023-05-24T04:23:49.747Z,90.73
2023-05-24T04:26:20.361Z,89.19
2023-05-24T04:28:48.495Z,88.58
2023-05-24T04:31:16.514Z,86.93
2023-05-24T04:33:43.442Z,86.72
2023-05-24T04:36:11.512Z,85.46
2023-05-24T04:38:39.268Z,85.36
2023-05-24T04:41:06.700Z,84.56
2023-05-24T04:43:34.784Z,84.70
2023-05-24T04:46:01.932Z,84.20
2023-05-24T04:48:29.336Z,83.71
2023-05-24T04:50:58.518Z,83.42
2023-05-24T04:53:25.771Z,83.03
2023-05-24T04:55:53.160Z,83.23
2023-05-24T04:58:20.045Z,82.80
2023-05-24T05:00:46.966Z,82.54
2023-05-24T05:03:14.052Z,81.71
2023-05-24T05:05:41.062Z,81.00
2023-05-24T05:08:07.958Z,80.43
2023-05-24T05:10:36.385Z,80.19
2023-05-24T05:13:03.606Z,79.67
2023-05-24T05:15:30.777Z,78.15
2023-05-24T05:17:57.596Z,78.31
2023-05-24T05:20:24.999Z,77.70
2023-05-24T05:22:51.859Z,77.73
2023-05-24T05:25:18.641Z,76.42
2023-05-24T05:27:45.424Z,76.71
2023-05-24T05:30:12.899Z,76.04
2023-05-24T05:32:40.169Z,75.37
2023-05-24T05:35:07.637Z,74.52
2023-05-24T05:37:34.565Z,73.65
2023-05-24T05:40:01.308Z,73.66
2023-05-24T05:42:28.174Z,73.43
2023-05-24T05:44:54.995Z,72.49
2023-05-24T05:47:21.758Z,72.37
2023-05-24T05:49:48.565Z,72.46
2023-05-24T05:52:15.485Z,72.26
2023-05-24T05:54:42.232Z,71.64
2023-05-24T05:57:11.429Z,70.78
2023-05-24T05:59:38.488Z,71.16
2023-05-24T06:02:06.873Z,71.56
2023-05-24T06:04:34.159Z,72.05
2023-05-24T06:07:01.247Z,72.08
2023-05-24T06:09:28.039Z,72.10
2023-05-24T06:11:54.910Z,71.19
2023-05-24T06:14:22.386Z,70.57
2023-05-24T06:16:49.519Z,70.48
2023-05-24T06:19:16.954Z,71.00
2023-05-24T06:21:48.304Z,71.92
2023-05-24T06:24:20.496Z,71.93
2023-05-24T06:26:48.897Z,71.73
2023-05-24T06:29:15.845Z,71.70
2023-05-24T06:31:43.678Z,71.51
2023-05-24T06:34:10.772Z,70.57
2023-05-24T06:36:41.484Z,71.21
2023-05-24T06:39:11.260Z,70.97
2023-05-24T06:41:39.153Z,70.48
2023-05-24T06:44:06.263Z,71.34
2023-05-24T06:46:33.051Z,71.56
2023-05-24T06:49:00.051Z,71.40
2023-05-24T06:51:27.046Z,71.85
2023-05-24T06:53:54.031Z,71.98
2023-05-24T06:56:21.535Z,71.94
2023-05-24T06:58:48.420Z,72.08
2023-05-24T07:01:15.769Z,71.38
2023-05-24T07:03:42.733Z,71.42
2023-05-24T07:06:12.266Z,71.22
2023-05-24T07:08:39.074Z,70.45
2023-05-24T07:11:06.310Z,69.85
2023-05-24T07:13:33.125Z,70.04
2023-05-24T07:16:00.059Z,70.38
2023-05-24T07:18:26.941Z,70.33
2023-05-24T07:20:55.015Z,69.61
2023-05-24T07:23:21.901Z,69.25
2023-05-24T07:25:49.475Z,69.59
2023-05-24T07:28:19.715Z,70.39
2023-05-24T07:30:46.788Z,70.32
2023-05-24T07:33:13.891Z,69.18
2023-05-24T07:35:41.954Z,69.60
2023-05-24T07:38:08.962Z,70.39
2023-05-24T07:40:35.842Z,70.42
2023-05-24T07:43:04.096Z,69.63
2023-05-24T07:45:31.879Z,69.81
2023-05-24T07:47:58.902Z,69.49
2023-05-24T07:50:26.567Z,69.93
2023-05-24T07:52:53.550Z,69.85
2023-05-24T07:55:20.633Z,70.07
2023-05-24T07:57:47.776Z,70.43
2023-05-24T08:00:15.223Z,70.24
2023-05-24T08:02:43.287Z,71.88
2023-05-24T08:05:13.861Z,72.39
2023-05-24T08:07:42.104Z,73.20
2023-05-24T08:10:14.586Z,72.76
2023-05-24T08:12:42.292Z,73.49
2023-05-24T08:15:09.688Z,74.12
2023-05-24T08:17:38.200Z,74.10
2023-05-24T08:20:09.975Z,74.22
2023-05-24T08:22:37.810Z,74.70
2023-05-24T08:25:06.253Z,73.89
2023-05-24T08:27:33.120Z,74.20
2023-05-24T08:29:59.911Z,73.43
2023-05-24T08:32:26.989Z,73.33
2023-05-24T08:34:58.153Z,72.81
2023-05-24T08:37:34.148Z,73.62
2023-05-24T08:40:01.000Z,74.64
2023-05-24T08:42:30.817Z,75.08
2023-05-24T08:45:10.974Z,75.14
2023-05-24T08:47:39.016Z,74.00
2023-05-24T08:50:06.873Z,73.50
2023-05-24T08:52:34.096Z,72.53
2023-05-24T08:55:01.884Z,71.90
2023-05-24T08:57:30.746Z,71.00
2023-05-24T08:59:57.986Z,70.15
2023-05-24T09:02:25.006Z,70.09
2023-05-24T09:04:53.773Z,68.96
2023-05-24T09:07:25.921Z,67.98
2023-05-24T09:10:01.361Z,68.66
2023-05-24T09:12:37.864Z,67.04
2023-05-24T09:15:07.694Z,63.41
2023-05-24T09:17:36.020Z,63.10
2023-05-24T09:20:07.241Z,63.20
2023-05-24T09:22:36.853Z,62.64
2023-05-24T09:25:06.834Z,61.89
2023-05-24T09:27:35.133Z,62.63
2023-05-24T09:30:03.764Z,61.61
2023-05-24T09:32:32.040Z,61.38
2023-05-24T09:35:00.418Z,61.00
2023-05-24T09:37:32.694Z,59.63
2023-05-24T09:40:00.387Z,57.51
2023-05-24T09:42:28.937Z,56.46
2023-05-24T09:45:09.242Z,55.50
2023-05-24T09:47:43.369Z,54.10
2023-05-24T09:50:16.588Z,51.15
2023-05-24T09:52:43.877Z,49.33
2023-05-24T09:55:18.384Z,51.01
2023-05-24T09:57:49.968Z,52.86
2023-05-24T10:00:22.747Z,54.20
2023-05-24T10:03:09.379Z,54.05
2023-05-24T10:05:37.392Z,52.72
2023-05-24T10:08:05.265Z,53.16
2023-05-24T10:10:33.902Z,51.47
2023-05-24T10:13:02.304Z,49.80
2023-05-24T10:15:30.806Z,50.32
2023-05-24T10:17:59.137Z,50.39
2023-05-24T10:20:26.940Z,53.44
2023-05-24T10:23:04.075Z,54.75
2023-05-24T10:25:34.882Z,55.90
2023-05-24T10:28:10.327Z,56.54
2023-05-24T10:30:54.272Z,58.02
2023-05-24T10:33:24.029Z,57.82
2023-05-24T10:35:51.901Z,58.01
2023-05-24T10:38:22.558Z,57.27
2023-05-24T10:40:49.782Z,57.10
2023-05-24T10:43:18.143Z,56.22
2023-05-24T10:45:49.530Z,56.03
2023-05-24T10:48:17.000Z,56.34
2023-05-24T10:50:44.794Z,57.80
2023-05-24T10:53:14.972Z,58.37
2023-05-24T10:55:56.605Z,58.60
2023-05-24T10:58:30.836Z,58.84
2023-05-24T11:00:57.756Z,58.27
2023-05-24T11:03:25.412Z,57.48
2023-05-24T11:05:54.831Z,58.48
2023-05-24T11:08:36.440Z,56.65
2023-05-24T11:11:26.556Z,57.36
2023-05-24T11:13:58.112Z,56.81
2023-05-24T11:16:39.451Z,56.53
2023-05-24T11:19:20.269Z,55.37
2023-05-24T11:21:49.525Z,56.54
2023-05-24T11:24:18.210Z,57.64
2023-05-24T11:26:45.989Z,57.67
2023-05-24T11:29:17.977Z,58.28
2023-05-24T11:31:55.676Z,58.07
2023-05-24T11:34:23.895Z,58.04
2023-05-24T11:36:55.431Z,57.68
2023-05-24T11:39:23.759Z,57.38
2023-05-24T11:41:50.796Z,56.96
2023-05-24T11:44:21.568Z,55.23
2023-05-24T11:46:48.577Z,54.67
2023-05-24T11:49:17.257Z,54.18
2023-05-24T11:51:44.389Z,54.71
2023-05-24T11:54:11.941Z,56.37
2023-05-24T11:59:16.286Z,57.08
2023-05-24T12:01:43.917Z,58.48
2023-05-24T12:04:11.927Z,59.49
2023-05-24T12:06:43.082Z,60.03
2023-05-24T12:09:13.706Z,60.16
2023-05-24T12:11:42.427Z,60.07
2023-05-24T12:14:19.660Z,61.62
2023-05-24T12:16:47.206Z,62.01
2023-05-24T12:19:32.219Z,62.45
2023-05-24T12:22:10.694Z,61.94
2023-05-24T12:24:38.054Z,61.78
2023-05-24T12:27:09.127Z,62.39
2023-05-24T12:29:38.716Z,63.06
2023-05-24T12:32:11.820Z,63.67
2023-05-24T12:34:41.835Z,63.59
2023-05-24T12:37:09.834Z,64.26
2023-05-24T12:39:37.567Z,64.56
2023-05-24T12:42:04.940Z,64.88
2023-05-24T12:44:35.467Z,65.35
2023-05-24T12:47:04.710Z,66.01
2023-05-24T12:49:32.250Z,65.58
2023-05-24T12:51:59.281Z,65.76
2023-05-24T12:54:27.758Z,66.23
2023-05-24T12:56:57.247Z,66.30
2023-05-24T12:59:26.148Z,66.16
2023-05-24T13:01:53.464Z,64.76
2023-05-24T13:04:23.264Z,64.82
2023-05-24T13:06:50.208Z,63.51
2023-05-24T13:09:24.520Z,63.33
2023-05-24T13:11:52.461Z,62.54
2023-05-24T13:14:20.069Z,62.05
2023-05-24T13:16:47.702Z,61.96
2023-05-24T13:19:14.697Z,62.04
2023-05-24T13:21:41.699Z,61.30
2023-05-24T13:24:09.036Z,61.80
2023-05-24T13:26:38.987Z,60.18
2023-05-24T13:31:41.267Z,57.57
2023-05-24T13:34:10.430Z,55.11
2023-05-24T13:36:38.161Z,54.65
2023-05-24T13:39:15.572Z,54.73
2023-05-24T13:41:43.760Z,55.52
2023-05-24T13:44:12.124Z,55.17
2023-05-24T13:46:40.336Z,55.29
2023-05-24T13:49:09.477Z,55.60
2023-05-24T13:51:36.993Z,56.59
2023-05-24T13:54:06.980Z,57.40
2023-05-24T13:56:34.422Z,58.25
2023-05-24T13:59:02.809Z,59.15
2023-05-24T14:01:30.494Z,58.73
2023-05-24T14:03:57.556Z,59.60
2023-05-24T14:06:24.505Z,60.18
2023-05-24T14:08:52.104Z,60.46
2023-05-24T14:11:19.692Z,60.08
2023-05-24T14:16:16.847Z,61.60
2023-05-24T14:18:43.999Z,61.75
2023-05-24T14:21:11.698Z,61.59
2023-05-24T14:23:38.999Z,62.17
2023-05-24T14:26:05.919Z,62.94
2023-05-24T14:28:32.763Z,62.86
2023-05-24T14:30:59.500Z,62.84
2023-05-24T14:33:26.358Z,62.79
2023-05-24T14:35:53.326Z,62.48
2023-05-24T14:38:20.144Z,62.98
2023-05-24T14:40:49.821Z,63.10
2023-05-24T14:43:16.793Z,63.81
2023-05-24T14:45:44.052Z,64.33
2023-05-24T14:48:12.056Z,65.43
2023-05-24T14:50:40.801Z,65.77
2023-05-24T14:53:11.961Z,65.38
2023-05-24T14:55:41.669Z,65.97
2023-05-24T14:58:09.542Z,66.38
2023-05-24T15:00:36.829Z,66.58
2023-05-24T15:03:06.124Z,66.33
2023-05-24T15:05:33.262Z,66.93
2023-05-24T15:08:00.221Z,67.54
2023-05-24T15:10:27.124Z,67.88
2023-05-24T15:12:53.951Z,67.63
2023-05-24T15:15:22.749Z,67.84
2023-05-24T15:17:49.672Z,67.84
2023-05-24T15:20:16.817Z,67.87
2023-05-24T15:22:43.969Z,68.22
2023-05-24T15:25:11.456Z,68.48
2023-05-24T15:27:38.883Z,68.09
2023-05-24T15:30:07.408Z,67.97
2023-05-24T15:32:34.334Z,68.44
2023-05-24T15:35:01.288Z,69.08
2023-05-24T15:37:28.144Z,69.86
2023-05-24T15:39:55.115Z,68.91
2023-05-24T15:42:24.565Z,69.38
2023-05-24T15:44:51.735Z,69.66
2023-05-24T15:47:21.208Z,69.74
2023-05-24T15:49:49.874Z,69.39
2023-05-24T15:52:17.007Z,69.56
2023-05-24T15:54:44.048Z,70.00
2023-05-24T15:57:11.016Z,69.91
2023-05-24T15:59:38.786Z,69.76
2023-05-24T16:02:09.664Z,69.58
2023-05-24T16:04:36.583Z,68.71
2023-05-24T16:07:03.542Z,68.99
2023-05-24T16:09:30.565Z,68.93
2023-05-24T16:11:57.418Z,69.18
2023-05-24T16:14:24.294Z,68.50
2023-05-24T16:16:51.281Z,68.82
2023-05-24T16:19:18.477Z,68.32
2023-05-24T16:21:45.509Z,68.48
2023-05-24T16:24:12.280Z,68.21
2023-05-24T16:26:39.152Z,68.44
2023-05-24T16:29:07.224Z,68.64
2023-05-24T16:31:34.086Z,69.30
2023-05-24T16:34:01.311Z,69.01
2023-05-24T16:36:28.274Z,69.60
2023-05-24T16:38:55.161Z,69.75
2023-05-24T16:41:22.092Z,70.05
2023-05-24T16:43:51.560Z,70.23
2023-05-24T16:46:19.052Z,70.92
2023-05-24T16:48:46.052Z,71.12
2023-05-24T16:51:12.950Z,71.38
2023-05-24T16:53:39.788Z,71.65
2023-05-24T16:56:06.655Z,71.65
2023-05-24T16:58:33.533Z,71.96
2023-05-24T17:01:00.846Z,72.63
2023-05-24T17:03:29.015Z,72.64
2023-05-24T17:05:59.476Z,73.74
2023-05-24T17:08:28.216Z,74.03
2023-05-24T17:10:59.114Z,74.17
2023-05-24T17:13:28.992Z,72.67
2023-05-24T17:15:57.267Z,74.20
2023-05-24T17:18:28.931Z,75.10
2023-05-24T17:20:56.631Z,74.16
2023-05-24T17:23:25.386Z,75.59
2023-05-24T17:25:53.146Z,76.28
2023-05-24T17:28:19.951Z,76.72
2023-05-24T17:30:47.495Z,77.11
2023-05-24T17:33:14.385Z,76.42
2023-05-24T17:35:43.039Z,77.04
2023-05-24T17:38:10.158Z,75.60
2023-05-24T17:40:36.959Z,75.75
2023-05-24T17:43:03.956Z,76.11
2023-05-24T17:45:32.157Z,75.53
2023-05-24T17:47:59.126Z,75.87
2023-05-24T17:50:25.937Z,76.34
2023-05-24T17:52:52.722Z,76.46
2023-05-24T17:55:19.523Z,76.80
2023-05-24T17:57:48.027Z,76.78
2023-05-24T18:00:15.047Z,76.70
2023-05-24T18:02:42.518Z,77.11
2023-05-24T18:05:09.686Z,77.72
2023-05-24T18:07:36.556Z,78.61
2023-05-24T18:10:04.706Z,78.41
2023-05-24T18:12:31.630Z,79.09
2023-05-24T18:14:58.564Z,80.67
2023-05-24T18:17:27.516Z,80.17
2023-05-24T18:19:54.595Z,79.62
2023-05-24T18:22:21.534Z,80.21
2023-05-24T18:24:48.369Z,80.80
2023-05-24T18:27:15.145Z,80.56
2023-05-24T18:29:41.976Z,81.13
2023-05-24T18:32:08.894Z,82.57
2023-05-24T18:34:35.849Z,82.14
2023-05-24T18:37:02.806Z,82.49
2023-05-24T18:39:30.838Z,82.69
2023-05-24T18:41:57.744Z,82.74
2023-05-24T18:44:24.530Z,83.76
2023-05-24T18:46:55.698Z,83.90
2023-05-24T18:49:23.540Z,84.60
2023-05-24T18:51:50.590Z,84.44
2023-05-24T18:54:17.478Z,85.05
2023-05-24T18:56:45.618Z,85.57
2023-05-24T18:59:12.797Z,86.05
2023-05-24T19:01:39.803Z,86.36
2023-05-24T19:04:06.757Z,86.09
2023-05-24T19:06:33.574Z,86.86
2023-05-24T19:09:00.712Z,87.08
2023-05-24T19:11:28.177Z,87.12
2023-05-24T19:13:54.990Z,87.39
2023-05-24T19:16:21.793Z,88.09
2023-05-24T19:18:49.542Z,89.01
2023-05-24T19:21:16.565Z,89.36
2023-05-24T19:23:43.426Z,89.65
2023-05-24T19:26:11.121Z,90.16
2023-05-24T19:28:40.408Z,90.52
2023-05-24T19:31:07.516Z,91.14
2023-05-24T19:33:35.088Z,91.86
2023-05-24T19:36:03.418Z,91.95
2023-05-24T19:38:30.364Z,92.71
2023-05-24T19:40:57.740Z,93.24
2023-05-24T19:43:24.654Z,94.09
2023-05-24T19:45:51.942Z,94.63
2023-05-24T19:48:18.885Z,94.84
2023-05-24T19:50:48.583Z,95.20
2023-05-24T19:53:16.112Z,95.04
2023-05-24T19:55:43.377Z,95.74
2023-05-24T19:58:10.382Z,96.21
2023-05-24T20:00:37.241Z,96.30
2023-05-24T20:03:04.166Z,96.94
2023-05-24T20:05:31.152Z,97.42
2023-05-24T20:07:57.958Z,97.83
2023-05-24T20:10:25.197Z,98.26
2023-05-24T20:12:51.934Z,98.61
2023-05-24T20:15:18.769Z,98.97
2023-05-24T20:17:45.703Z,99.64
2023-05-24T20:20:12.676Z,99.96
2023-05-24T20:22:39.527Z,100.00
2023-05-24T20:25:07.006Z,100.00
2023-05-24T20:27:33.848Z,100.00
2023-05-24T20:30:00.723Z,100.00
2023-05-24T20:32:27.544Z,100.00
2023-05-24T20:34:54.357Z,100.00
2023-05-24T20:37:21.171Z,100.00
2023-05-24T20:39:48.022Z,100.00
2023-05-24T20:42:15.157Z,100.00
2023-05-24T20:44:42.121Z,100.00
2023-05-24T20:47:08.914Z,100.00
2023-05-24T20:49:36.362Z,100.00
2023-05-24T20:52:03.840Z,100.00
2023-05-24T20:54:31.018Z,100.00
2023-05-24T20:56:57.909Z,100.00
2023-05-24T20:59:24.690Z,100.00
2023-05-24T21:01:51.600Z,100.00
2023-05-24T21:04:19.510Z,100.00
2023-05-24T21:06:46.377Z,100.00
2023-05-24T21:09:13.164Z,100.00
2023-05-24T21:11:40.137Z,100.00
2023-05-24T21:14:06.975Z,100.00
2023-05-24T21:16:34.036Z,100.00
2023-05-24T21:19:01.137Z,100.00
2023-05-24T21:21:28.339Z,100.00
2023-05-24T21:23:55.697Z,100.00
2023-05-24T21:26:22.857Z,100.00
2023-05-24T21:28:49.782Z,100.00
2023-05-24T21:31:17.218Z,100.00
2023-05-24T21:33:44.242Z,100.00
2023-05-24T21:36:11.022Z,100.00
2023-05-24T21:38:37.813Z,100.00
2023-05-24T21:41:05.375Z,100.00
2023-05-24T21:43:32.536Z,100.00
2023-05-24T21:45:59.333Z,100.00
2023-05-24T21:48:26.113Z,100.00
2023-05-24T21:50:52.915Z,100.00
2023-05-24T21:53:19.716Z,100.00
2023-05-24T21:55:46.587Z,100.00
2023-05-24T21:58:13.479Z,100.00
2023-05-24T22:00:40.269Z,100.00
2023-05-24T22:03:07.336Z,100.00
2023-05-24T22:05:34.212Z,100.00
2023-05-24T22:08:01.077Z,100.00
2023-05-24T22:10:27.945Z,100.00
2023-05-24T22:12:54.705Z,100.00
2023-05-24T22:15:21.541Z,100.00
2023-05-24T22:17:48.416Z,100.00
2023-05-24T22:20:15.458Z,100.00
2023-05-24T22:22:48.522Z,100.00
2023-05-24T22:25:20.714Z,100.00
2023-05-24T22:27:51.082Z,100.00
2023-05-24T22:30:18.250Z,100.00
2023-05-24T22:32:45.204Z,100.00
2023-05-24T22:35:12.153Z,100.00
2023-05-24T22:37:38.985Z,100.00
2023-05-24T22:40:06.474Z,100.00
2023-05-24T22:42:33.382Z,100.00
2023-05-24T22:45:00.145Z,100.00
2023-05-24T22:47:28.766Z,100.00
2023-05-24T22:49:55.664Z,100.00
2023-05-24T22:52:24.673Z,100.00
2023-05-24T22:54:51.519Z,100.00
2023-05-24T22:57:22.545Z,100.00
2023-05-24T22:59:49.788Z,100.00
2023-05-24T23:02:16.788Z,100.00
2023-05-24T23:04:46.378Z,100.00
2023-05-24T23:07:15.489Z,100.00
2023-05-24T23:09:43.296Z,100.00
2023-05-24T23:12:11.082Z,100.00
2023-05-24T23:14:41.877Z,100.00
2023-05-24T23:17:17.184Z,100.00
2023-05-24T23:19:44.132Z,100.00
2023-05-24T23:22:23.744Z,100.00
2023-05-24T23:24:50.596Z,100.00
2023-05-24T23:27:17.996Z,100.00
2023-05-24T23:29:44.738Z,100.00
2023-05-24T23:32:11.849Z,100.00
2023-05-24T23:34:38.622Z,100.00
2023-05-24T23:37:05.820Z,100.00
2023-05-24T23:39:32.721Z,100.00
2023-05-24T23:41:59.542Z,100.00
2023-05-24T23:44:26.449Z,100.00
2023-05-24T23:46:53.716Z,100.00
2023-05-24T23:49:20.932Z,100.00
2023-05-24T23:51:47.909Z,100.00
2023-05-24T23:54:19.322Z,100.00
2023-05-24T23:56:46.414Z,100.00
2023-05-24T23:59:13.239Z,100.00
